Whitehorse, South Dakota
Current Conditions -  °F | °C
As of 1:52 PM on Tuesday 21 Oct 2014 (Local Time) from KMBG Reporting Station
Clear Clear  
Wind Chill: 82°   Ceiling: Unl
Heat Index: 82°   Visibility: 10mi
Dew Point: 47°   Wind: 24mph
Humidity: 29%   Direction: 160°SSE
Pressure: 29.7"   Gusts: NA
Location:  45.27°N, 100.89°W
Report Text: KMBG 211952Z AUTO 16021KT 10SM CLR 28/08 A2970 RMK AO2 SLP049 T02780083
Loading
Personal Weather Stations






























Interactive Weather Map
Tropical Storm Tracking
New forecast layout! Learn more

10-Day Weather Forecast

Advertisements
Track Severe Weather on mobile